Observations for CARDIFF-WALES ARPT, United Kingdom (EGFF)

EGFF 221520Z AUTO 36006KT 330V050 9999 NCD 13/05 Q1038  
EGFF 221450Z AUTO 03005KT 340V070 9999 NCD 14/05 Q1038  
EGFF 221420Z AUTO 01008KT 340V050 9999 NCD 14/06 Q1039  
EGFF 221350Z AUTO 36009KT 320V030 9999 NCD 14/05 Q1039  
EGFF 221320Z AUTO 35007KT 320V030 9999 NCD 14/05 Q1039  
EGFF 221250Z AUTO 36006KT 310V090 9999 NCD 13/05 Q1039  
EGFF 221220Z AUTO 36006KT 340V040 9999 NCD 13/06 Q1039  
EGFF 221150Z AUTO 04005KT 340V090 9999 NCD 13/05 Q1039  
EGFF 221120Z AUTO 02006KT 350V060 9999 NCD 13/06 Q1039  
EGFF 221050Z AUTO 01006KT 330V070 9999 NCD 12/05 Q1039  
EGFF 221020Z AUTO 01009KT 340V040 9999 NCD 12/06 Q1039  
EGFF 220950Z AUTO 36009KT 9999 NCD 11/06 Q1039  
EGFF 220920Z AUTO 35007KT 9999 NCD 10/06 Q1039  
EGFF 220850Z AUTO 34006KT 9999 NCD 09/06 Q1039  
EGFF 220820Z AUTO 35010KT 9999 NCD 08/05 Q1039  
EGFF 220750Z AUTO 33009KT 9999 NCD 07/04 Q1038  
EGFF 220720Z AUTO 34008KT 9999 NCD 06/03 Q1038  
EGFF 220650Z AUTO 34007KT 9999 NCD 06/03 Q1038  
EGFF 220620Z AUTO 33008KT 9999 NCD 05/03 Q1037  
EGFF 220550Z AUTO 31008KT 9999 NCD 05/03 Q1037  
EGFF 220520Z AUTO 32005KT 9999 NCD 05/03 Q1037  
EGFF 220450Z AUTO 34006KT 9999 NCD 06/03 Q1036  
EGFF 220420Z AUTO 34004KT 9999 NCD 06/03 Q1036  
EGFF 220350Z AUTO 32003KT 9999 NCD 06/03 Q1036  
EGFF 220320Z AUTO 35004KT 9999 NCD 07/04 Q1035  
EGFF 220250Z AUTO 02004KT 9999 NCD 08/04 Q1035  
EGFF 220220Z AUTO 36007KT 9999 NCD 08/05 Q1035  
EGFF 220150Z AUTO 35007KT 9999 NCD 08/05 Q1035  
EGFF 220120Z AUTO 35004KT 9999 NCD 08/06 Q1034  
EGFF 220050Z AUTO 01004KT 9999 NCD 09/06 Q1034  
EGFF 220020Z AUTO 01005KT 9999 NCD 09/06 Q1034  
EGFF 212350Z AUTO 36006KT 9999 NCD 09/06 Q1034  
EGFF 212320Z AUTO 01007KT 9999 SCT043 11/06 Q1033   
EGFF 212250Z AUTO 02011KT 9999 BKN039 BKN047 12/06 Q1033
EGFF 212220Z AUTO 02014KT 9999 OVC033 12/07 Q1032   
EGFF 212150Z AUTO 02014KT 9999 SCT023 OVC030 13/08 Q1032
EGFF 212120Z AUTO 02012KT 9999 OVC024 13/09 Q1032   
EGFF 212050Z AUTO 01014KT 9999 OVC020 13/10 Q1031   
EGFF 212020Z AUTO 36010KT 9999 OVC016 14/12 Q1031   
EGFF 211950Z AUTO 31003KT 9999 BKN018 OVC023 14/13 Q1030
EGFF 211920Z AUTO 30003KT 9999 SCT021 SCT029 OVC044 14/13 Q1030 
EGFF 211850Z AUTO 27004KT 9999 OVC043 14/13 Q1030   
EGFF 211820Z 29007KT 9999 OVC040 14/13 Q1029
EGFF 211750Z AUTO 30009KT 9999 BKN017 OVC048 14/13 Q1029
EGFF 211720Z 29010KT 9999 FEW017 SCT022 14/13 Q1028 
EGFF 211650Z 28010KT 9999 FEW018 SCT024 14/13 Q1028 
EGFF 211620Z AUTO 28010KT 9999 OVC017 14/13 Q1028   
EGFF 211550Z AUTO 29011KT 9999 BKN011 OVC035 14/13 Q1028
EGFF 211520Z AUTO 29013KT 9999 SCT012 OVC029 14/12 Q1028
EGFF 211450Z AUTO 28013KT 9999 BKN028 15/12 Q1027